sensor_id;sensor_type;location;lat;lon;timestamp;P1;durP1;ratioP1;P2;durP2;ratioP2
2858;SDS011;1437;53.250;10.406;2023-09-12T00:02:48;11.50;;;9.50;;
2858;SDS011;1437;53.250;10.406;2023-09-12T00:05:36;18.43;;;11.80;;
2858;SDS011;1437;53.250;10.406;2023-09-12T00:08:26;17.33;;;13.83;;
2858;SDS011;1437;53.250;10.406;2023-09-12T00:11:03;17.30;;;11.30;;
2858;SDS011;1437;53.250;10.406;2023-09-12T00:13:36;21.63;;;12.07;;
2858;SDS011;1437;53.250;10.406;2023-09-12T00:16:09;16.60;;;11.30;;
2858;SDS011;1437;53.250;10.406;2023-09-12T00:18:39;21.33;;;11.60;;
2858;SDS011;1437;53.250;10.406;2023-09-12T00:21:12;13.83;;;11.43;;
2858;SDS011;1437;53.250;10.406;2023-09-12T00:23:55;16.50;;;10.80;;
2858;SDS011;1437;53.250;10.406;2023-09-12T00:26:31;17.53;;;13.67;;
2858;SDS011;1437;53.250;10.406;2023-09-12T00:29:08;20.83;;;13.53;;
2858;SDS011;1437;53.250;10.406;2023-09-12T00:31:43;19.23;;;13.67;;
2858;SDS011;1437;53.250;10.406;2023-09-12T00:34:12;18.47;;;14.20;;
2858;SDS011;1437;53.250;10.406;2023-09-12T00:36:53;17.00;;;15.20;;
2858;SDS011;1437;53.250;10.406;2023-09-12T00:39:23;20.70;;;14.53;;
2858;SDS011;1437;53.250;10.406;2023-09-12T00:49:49;22.33;;;14.00;;
2858;SDS011;1437;53.250;10.406;2023-09-12T00:52:18;18.37;;;13.77;;
2858;SDS011;1437;53.250;10.406;2023-09-12T00:54:48;20.80;;;16.43;;
2858;SDS011;1437;53.250;10.406;2023-09-12T00:57:19;17.53;;;14.90;;
2858;SDS011;1437;53.250;10.406;2023-09-12T00:59:48;20.93;;;16.57;;
2858;SDS011;1437;53.250;10.406;2023-09-12T01:02:16;18.83;;;16.70;;
2858;SDS011;1437;53.250;10.406;2023-09-12T01:07:35;16.97;;;14.97;;
2858;SDS011;1437;53.250;10.406;2023-09-12T01:10:16;18.20;;;15.17;;
2858;SDS011;1437;53.250;10.406;2023-09-12T01:12:46;19.33;;;14.57;;
2858;SDS011;1437;53.250;10.406;2023-09-12T01:15:15;22.40;;;15.33;;
2858;SDS011;1437;53.250;10.406;2023-09-12T01:17:43;19.73;;;16.03;;
2858;SDS011;1437;53.250;10.406;2023-09-12T01:20:22;19.87;;;16.27;;
2858;SDS011;1437;53.250;10.406;2023-09-12T01:25:58;21.80;;;18.50;;
2858;SDS011;1437;53.250;10.406;2023-09-12T01:28:39;23.50;;;18.90;;
2858;SDS011;1437;53.250;10.406;2023-09-12T01:31:11;21.33;;;18.87;;
2858;SDS011;1437;53.250;10.406;2023-09-12T01:33:42;23.50;;;21.00;;
2858;SDS011;1437;53.250;10.406;2023-09-12T01:36:10;23.43;;;19.37;;
2858;SDS011;1437;53.250;10.406;2023-09-12T01:38:47;21.03;;;18.63;;
2858;SDS011;1437;53.250;10.406;2023-09-12T03:51:33;29.23;;;24.53;;
2858;SDS011;1437;53.250;10.406;2023-09-12T03:54:22;34.73;;;25.60;;
2858;SDS011;1437;53.250;10.406;2023-09-12T03:56:57;26.97;;;24.03;;
2858;SDS011;1437;53.250;10.406;2023-09-12T03:59:25;29.47;;;23.70;;
2858;SDS011;1437;53.250;10.406;2023-09-12T04:02:04;35.53;;;24.43;;
2858;SDS011;1437;53.250;10.406;2023-09-12T04:04:46;37.20;;;24.00;;
2858;SDS011;1437;53.250;10.406;2023-09-12T04:07:16;36.63;;;24.83;;
2858;SDS011;1437;53.250;10.406;2023-09-12T04:09:53;33.80;;;23.10;;
2858;SDS011;1437;53.250;10.406;2023-09-12T04:12:23;32.20;;;25.37;;
2858;SDS011;1437;53.250;10.406;2023-09-12T04:14:57;33.13;;;25.57;;
2858;SDS011;1437;53.250;10.406;2023-09-12T04:17:28;29.60;;;25.00;;
2858;SDS011;1437;53.250;10.406;2023-09-12T04:19:57;33.10;;;26.07;;
2858;SDS011;1437;53.250;10.406;2023-09-12T04:22:53;32.00;;;24.97;;
2858;SDS011;1437;53.250;10.406;2023-09-12T04:25:36;33.60;;;26.17;;
2858;SDS011;1437;53.250;10.406;2023-09-12T04:28:08;27.57;;;24.67;;
2858;SDS011;1437;53.250;10.406;2023-09-12T04:30:39;31.67;;;24.97;;
2858;SDS011;1437;53.250;10.406;2023-09-12T04:33:18;29.13;;;25.67;;
2858;SDS011;1437;53.250;10.406;2023-09-12T04:35:51;33.43;;;25.50;;
2858;SDS011;1437;53.250;10.406;2023-09-12T04:38:28;40.77;;;28.70;;
2858;SDS011;1437;53.250;10.406;2023-09-12T04:41:06;33.50;;;25.57;;
2858;SDS011;1437;53.250;10.406;2023-09-12T04:43:47;32.63;;;26.53;;
2858;SDS011;1437;53.250;10.406;2023-09-12T04:46:44;30.00;;;25.80;;
2858;SDS011;1437;53.250;10.406;2023-09-12T04:49:23;30.57;;;26.60;;
2858;SDS011;1437;53.250;10.406;2023-09-12T04:52:10;28.87;;;25.37;;
2858;SDS011;1437;53.250;10.406;2023-09-12T04:58:06;32.50;;;27.20;;
2858;SDS011;1437;53.250;10.406;2023-09-12T05:00:46;32.03;;;28.30;;
2858;SDS011;1437;53.250;10.406;2023-09-12T05:03:30;36.10;;;26.10;;
2858;SDS011;1437;53.250;10.406;2023-09-12T05:06:03;36.23;;;29.43;;
2858;SDS011;1437;53.250;10.406;2023-09-12T05:08:39;35.03;;;28.70;;
2858;SDS011;1437;53.250;10.406;2023-09-12T05:11:09;36.40;;;28.80;;
2858;SDS011;1437;53.250;10.406;2023-09-12T05:16:50;33.53;;;28.70;;
2858;SDS011;1437;53.250;10.406;2023-09-12T05:22:02;31.63;;;26.53;;
2858;SDS011;1437;53.250;10.406;2023-09-12T05:24:46;33.93;;;27.30;;
2858;SDS011;1437;53.250;10.406;2023-09-12T05:29:57;31.70;;;25.97;;
2858;SDS011;1437;53.250;10.406;2023-09-12T05:36:12;33.13;;;26.17;;
2858;SDS011;1437;53.250;10.406;2023-09-12T05:38:51;30.70;;;24.70;;
2858;SDS011;1437;53.250;10.406;2023-09-12T05:41:43;27.30;;;24.17;;
2858;SDS011;1437;53.250;10.406;2023-09-12T05:54:07;27.93;;;21.63;;
2858;SDS011;1437;53.250;10.406;2023-09-12T05:56:40;28.43;;;23.20;;
2858;SDS011;1437;53.250;10.406;2023-09-12T05:59:27;28.63;;;22.73;;
2858;SDS011;1437;53.250;10.406;2023-09-12T06:01:57;28.20;;;23.30;;
2858;SDS011;1437;53.250;10.406;2023-09-12T06:07:32;26.23;;;23.20;;
2858;SDS011;1437;53.250;10.406;2023-09-12T06:42:00;28.80;;;23.30;;
2858;SDS011;1437;53.250;10.406;2023-09-12T06:48:16;26.37;;;23.40;;
2858;SDS011;1437;53.250;10.406;2023-09-12T06:51:11;27.40;;;21.90;;
2858;SDS011;1437;53.250;10.406;2023-09-12T06:56:35;25.20;;;21.67;;
2858;SDS011;1437;53.250;10.406;2023-09-12T06:59:27;25.63;;;21.47;;
2858;SDS011;1437;53.250;10.406;2023-09-12T07:02:29;29.20;;;24.40;;
2858;SDS011;1437;53.250;10.406;2023-09-12T07:11:43;26.70;;;22.30;;
2858;SDS011;1437;53.250;10.406;2023-09-12T07:14:41;27.87;;;23.47;;
2858;SDS011;1437;53.250;10.406;2023-09-12T07:21:53;27.47;;;23.80;;
2858;SDS011;1437;53.250;10.406;2023-09-12T07:33:47;29.47;;;24.27;;
2858;SDS011;1437;53.250;10.406;2023-09-12T07:36:24;30.13;;;24.43;;
2858;SDS011;1437;53.250;10.406;2023-09-12T07:38:59;25.67;;;22.07;;
2858;SDS011;1437;53.250;10.406;2023-09-12T07:41:33;28.73;;;23.07;;
2858;SDS011;1437;53.250;10.406;2023-09-12T07:44:05;32.13;;;24.80;;
2858;SDS011;1437;53.250;10.406;2023-09-12T07:46:46;30.33;;;24.00;;
2858;SDS011;1437;53.250;10.406;2023-09-12T07:49:18;32.70;;;24.73;;
2858;SDS011;1437;53.250;10.406;2023-09-12T07:51:46;30.40;;;22.80;;
2858;SDS011;1437;53.250;10.406;2023-09-12T07:57:18;35.67;;;25.53;;
2858;SDS011;1437;53.250;10.406;2023-09-12T08:00:10;32.37;;;25.73;;
2858;SDS011;1437;53.250;10.406;2023-09-12T08:02:58;32.13;;;25.80;;
2858;SDS011;1437;53.250;10.406;2023-09-12T08:05:38;28.60;;;23.70;;
2858;SDS011;1437;53.250;10.406;2023-09-12T08:08:07;31.90;;;25.07;;
2858;SDS011;1437;53.250;10.406;2023-09-12T08:10:45;31.97;;;25.60;;
2858;SDS011;1437;53.250;10.406;2023-09-12T08:13:30;30.27;;;24.63;;
2858;SDS011;1437;53.250;10.406;2023-09-12T08:18:44;30.27;;;24.77;;
2858;SDS011;1437;53.250;10.406;2023-09-12T08:21:23;32.47;;;24.67;;
2858;SDS011;1437;53.250;10.406;2023-09-12T08:23:57;31.40;;;24.30;;
2858;SDS011;1437;53.250;10.406;2023-09-12T08:26:31;28.60;;;23.03;;
2858;SDS011;1437;53.250;10.406;2023-09-12T08:29:04;29.07;;;23.90;;
2858;SDS011;1437;53.250;10.406;2023-09-12T08:31:38;28.30;;;23.07;;
2858;SDS011;1437;53.250;10.406;2023-09-12T08:34:09;29.77;;;21.57;;
2858;SDS011;1437;53.250;10.406;2023-09-12T08:36:39;31.67;;;24.30;;
2858;SDS011;1437;53.250;10.406;2023-09-12T08:39:40;26.37;;;21.33;;
2858;SDS011;1437;53.250;10.406;2023-09-12T08:42:33;25.57;;;20.83;;
2858;SDS011;1437;53.250;10.406;2023-09-12T08:45:14;26.97;;;21.47;;
2858;SDS011;1437;53.250;10.406;2023-09-12T08:48:19;26.13;;;20.90;;
2858;SDS011;1437;53.250;10.406;2023-09-12T08:51:04;26.93;;;21.43;;
2858;SDS011;1437;53.250;10.406;2023-09-12T09:00:11;31.53;;;25.53;;
2858;SDS011;1437;53.250;10.406;2023-09-12T09:03:00;27.93;;;22.13;;
2858;SDS011;1437;53.250;10.406;2023-09-12T09:05:44;25.57;;;20.90;;
2858;SDS011;1437;53.250;10.406;2023-09-12T09:08:25;24.97;;;19.70;;
2858;SDS011;1437;53.250;10.406;2023-09-12T09:11:10;28.10;;;21.80;;
2858;SDS011;1437;53.250;10.406;2023-09-12T09:14:31;23.70;;;20.07;;
2858;SDS011;1437;53.250;10.406;2023-09-12T09:25:42;21.70;;;18.40;;
2858;SDS011;1437;53.250;10.406;2023-09-12T09:31:26;18.87;;;16.87;;
2858;SDS011;1437;53.250;10.406;2023-09-12T09:37:42;21.00;;;18.77;;
2858;SDS011;1437;53.250;10.406;2023-09-12T09:40:27;20.10;;;17.90;;
2858;SDS011;1437;53.250;10.406;2023-09-12T09:42:59;17.63;;;15.63;;
2858;SDS011;1437;53.250;10.406;2023-09-12T09:45:32;19.47;;;17.47;;
2858;SDS011;1437;53.250;10.406;2023-09-12T09:48:25;20.60;;;18.13;;
2858;SDS011;1437;53.250;10.406;2023-09-12T09:51:05;18.10;;;15.97;;
2858;SDS011;1437;53.250;10.406;2023-09-12T09:53:52;20.93;;;16.27;;
2858;SDS011;1437;53.250;10.406;2023-09-12T09:57:01;24.97;;;16.27;;
2858;SDS011;1437;53.250;10.406;2023-09-12T09:59:57;17.33;;;14.53;;
2858;SDS011;1437;53.250;10.406;2023-09-12T10:06:01;15.13;;;12.80;;
2858;SDS011;1437;53.250;10.406;2023-09-12T10:08:40;13.63;;;11.73;;
2858;SDS011;1437;53.250;10.406;2023-09-12T10:11:51;15.37;;;11.60;;
2858;SDS011;1437;53.250;10.406;2023-09-12T10:15:01;18.03;;;10.83;;
2858;SDS011;1437;53.250;10.406;2023-09-12T10:23:49;17.10;;;11.17;;
2858;SDS011;1437;53.250;10.406;2023-09-12T10:26:25;14.20;;;11.20;;
2858;SDS011;1437;53.250;10.406;2023-09-12T10:29:31;12.10;;;10.17;;
2858;SDS011;1437;53.250;10.406;2023-09-12T10:33:40;12.87;;;8.37;;
2858;SDS011;1437;53.250;10.406;2023-09-12T10:36:02;9.40;;;8.40;;
2858;SDS011;1437;53.250;10.406;2023-09-12T10:38:58;11.73;;;10.43;;
2858;SDS011;1437;53.250;10.406;2023-09-12T10:41:54;13.60;;;10.80;;
2858;SDS011;1437;53.250;10.406;2023-09-12T10:44:43;13.10;;;11.40;;
2858;SDS011;1437;53.250;10.406;2023-09-12T10:53:18;13.57;;;10.73;;
2858;SDS011;1437;53.250;10.406;2023-09-12T10:56:17;12.90;;;10.97;;
2858;SDS011;1437;53.250;10.406;2023-09-12T11:02:00;16.43;;;12.20;;
2858;SDS011;1437;53.250;10.406;2023-09-12T11:05:07;12.97;;;10.80;;
2858;SDS011;1437;53.250;10.406;2023-09-12T11:07:55;14.10;;;11.43;;
2858;SDS011;1437;53.250;10.406;2023-09-12T11:10:52;11.23;;;9.93;;
2858;SDS011;1437;53.250;10.406;2023-09-12T11:14:02;13.23;;;11.80;;
2858;SDS011;1437;53.250;10.406;2023-09-12T11:16:33;15.27;;;12.53;;
2858;SDS011;1437;53.250;10.406;2023-09-12T11:19:20;14.53;;;12.10;;
2858;SDS011;1437;53.250;10.406;2023-09-12T11:22:07;16.27;;;13.60;;
2858;SDS011;1437;53.250;10.406;2023-09-12T11:24:55;16.90;;;11.87;;
2858;SDS011;1437;53.250;10.406;2023-09-12T11:27:43;14.07;;;11.70;;
2858;SDS011;1437;53.250;10.406;2023-09-12T11:30:30;12.40;;;11.00;;
2858;SDS011;1437;53.250;10.406;2023-09-12T11:33:20;12.87;;;9.90;;
2858;SDS011;1437;53.250;10.406;2023-09-12T11:54:39;13.70;;;11.10;;
2858;SDS011;1437;53.250;10.406;2023-09-12T11:57:11;11.57;;;10.10;;
2858;SDS011;1437;53.250;10.406;2023-09-12T11:59:45;18.07;;;11.80;;
2858;SDS011;1437;53.250;10.406;2023-09-12T12:02:17;11.43;;;9.80;;
2858;SDS011;1437;53.250;10.406;2023-09-12T12:04:46;12.17;;;10.53;;
2858;SDS011;1437;53.250;10.406;2023-09-12T12:07:18;10.80;;;9.70;;
2858;SDS011;1437;53.250;10.406;2023-09-12T12:09:58;17.33;;;12.83;;
2858;SDS011;1437;53.250;10.406;2023-09-12T12:12:52;13.93;;;11.27;;
2858;SDS011;1437;53.250;10.406;2023-09-12T12:19:06;14.53;;;10.60;;
2858;SDS011;1437;53.250;10.406;2023-09-12T12:21:38;11.97;;;9.50;;
2858;SDS011;1437;53.250;10.406;2023-09-12T12:24:47;11.83;;;8.40;;
2858;SDS011;1437;53.250;10.406;2023-09-12T12:27:37;14.80;;;10.37;;
2858;SDS011;1437;53.250;10.406;2023-09-12T12:33:01;13.77;;;10.90;;
2858;SDS011;1437;53.250;10.406;2023-09-12T12:35:42;13.80;;;10.00;;
2858;SDS011;1437;53.250;10.406;2023-09-12T12:38:16;13.83;;;10.17;;
2858;SDS011;1437;53.250;10.406;2023-09-12T13:01:44;14.73;;;10.93;;
2858;SDS011;1437;53.250;10.406;2023-09-12T13:04:44;11.30;;;9.60;;
2858;SDS011;1437;53.250;10.406;2023-09-12T13:07:33;12.10;;;9.40;;
2858;SDS011;1437;53.250;10.406;2023-09-12T13:10:23;9.97;;;8.97;;
2858;SDS011;1437;53.250;10.406;2023-09-12T13:16:29;15.40;;;10.90;;
2858;SDS011;1437;53.250;10.406;2023-09-12T13:19:08;10.93;;;8.60;;
2858;SDS011;1437;53.250;10.406;2023-09-12T13:21:50;10.90;;;7.10;;
2858;SDS011;1437;53.250;10.406;2023-09-12T13:24:31;15.10;;;8.30;;
2858;SDS011;1437;53.250;10.406;2023-09-12T13:27:06;9.00;;;7.67;;
2858;SDS011;1437;53.250;10.406;2023-09-12T13:33:00;9.53;;;7.67;;
2858;SDS011;1437;53.250;10.406;2023-09-12T13:38:36;13.63;;;8.33;;
2858;SDS011;1437;53.250;10.406;2023-09-12T13:41:19;12.37;;;9.57;;
2858;SDS011;1437;53.250;10.406;2023-09-12T13:46:57;9.33;;;7.67;;
2858;SDS011;1437;53.250;10.406;2023-09-12T13:49:48;8.80;;;7.90;;
2858;SDS011;1437;53.250;10.406;2023-09-12T13:52:35;13.10;;;10.30;;
2858;SDS011;1437;53.250;10.406;2023-09-12T14:01:48;9.47;;;6.70;;
2858;SDS011;1437;53.250;10.406;2023-09-12T14:04:45;11.00;;;8.30;;
2858;SDS011;1437;53.250;10.406;2023-09-12T14:09:54;10.23;;;7.00;;
2858;SDS011;1437;53.250;10.406;2023-09-12T14:15:05;10.33;;;6.43;;
2858;SDS011;1437;53.250;10.406;2023-09-12T14:17:45;8.23;;;6.17;;
2858;SDS011;1437;53.250;10.406;2023-09-12T14:28:14;12.07;;;6.60;;
2858;SDS011;1437;53.250;10.406;2023-09-12T15:14:21;7.03;;;4.50;;
2858;SDS011;1437;53.250;10.406;2023-09-12T15:18:08;5.90;;;4.30;;
2858;SDS011;1437;53.250;10.406;2023-09-12T15:20:12;6.43;;;4.70;;
2858;SDS011;1437;53.250;10.406;2023-09-12T15:29:03;7.87;;;4.70;;
2858;SDS011;1437;53.250;10.406;2023-09-12T15:44:19;7.70;;;5.40;;
2858;SDS011;1437;53.250;10.406;2023-09-12T15:47:08;9.17;;;4.80;;
2858;SDS011;1437;53.250;10.406;2023-09-12T15:52:44;6.10;;;4.00;;
2858;SDS011;1437;53.250;10.406;2023-09-12T15:55:27;7.10;;;3.87;;
2858;SDS011;1437;53.250;10.406;2023-09-12T15:58:18;5.27;;;4.07;;
2858;SDS011;1437;53.250;10.406;2023-09-12T16:15:49;7.50;;;4.80;;
2858;SDS011;1437;53.250;10.406;2023-09-12T16:18:31;8.03;;;4.97;;
2858;SDS011;1437;53.250;10.406;2023-09-12T16:21:08;10.53;;;5.57;;
2858;SDS011;1437;53.250;10.406;2023-09-12T16:23:45;6.23;;;5.10;;
2858;SDS011;1437;53.250;10.406;2023-09-12T16:26:29;7.70;;;6.27;;
2858;SDS011;1437;53.250;10.406;2023-09-12T16:29:08;6.27;;;4.27;;
2858;SDS011;1437;53.250;10.406;2023-09-12T16:32:07;7.50;;;5.20;;
2858;SDS011;1437;53.250;10.406;2023-09-12T16:41:02;8.83;;;5.70;;
2858;SDS011;1437;53.250;10.406;2023-09-12T16:46:11;7.80;;;6.30;;
2858;SDS011;1437;53.250;10.406;2023-09-12T16:48:52;11.77;;;8.33;;
2858;SDS011;1437;53.250;10.406;2023-09-12T16:56:49;9.90;;;5.60;;
2858;SDS011;1437;53.250;10.406;2023-09-12T16:59:26;8.50;;;5.90;;
2858;SDS011;1437;53.250;10.406;2023-09-12T17:05:00;7.53;;;4.93;;
2858;SDS011;1437;53.250;10.406;2023-09-12T17:10:35;5.70;;;4.00;;
2858;SDS011;1437;53.250;10.406;2023-09-12T17:13:20;6.17;;;4.40;;
2858;SDS011;1437;53.250;10.406;2023-09-12T17:16:01;6.80;;;4.90;;
2858;SDS011;1437;53.250;10.406;2023-09-12T17:19:58;7.50;;;5.00;;
2858;SDS011;1437;53.250;10.406;2023-09-12T17:21:54;8.30;;;4.33;;
2858;SDS011;1437;53.250;10.406;2023-09-12T17:24:26;6.37;;;4.73;;
2858;SDS011;1437;53.250;10.406;2023-09-12T17:27:12;6.40;;;5.77;;
2858;SDS011;1437;53.250;10.406;2023-09-12T17:57:16;9.87;;;7.57;;
2858;SDS011;1437;53.250;10.406;2023-09-12T18:03:30;8.67;;;6.87;;
2858;SDS011;1437;53.250;10.406;2023-09-12T18:51:18;9.57;;;8.00;;
2858;SDS011;1437;53.250;10.406;2023-09-12T18:57:19;9.33;;;8.07;;
2858;SDS011;1437;53.250;10.406;2023-09-12T19:09:14;11.73;;;8.63;;
2858;SDS011;1437;53.250;10.406;2023-09-12T19:11:58;15.30;;;8.90;;
2858;SDS011;1437;53.250;10.406;2023-09-12T19:14:45;10.80;;;8.43;;
2858;SDS011;1437;53.250;10.406;2023-09-12T19:23:34;12.47;;;8.80;;
2858;SDS011;1437;53.250;10.406;2023-09-12T19:29:28;9.43;;;7.80;;
2858;SDS011;1437;53.250;10.406;2023-09-12T19:32:20;10.63;;;7.80;;
2858;SDS011;1437;53.250;10.406;2023-09-12T19:38:13;9.10;;;7.50;;
2858;SDS011;1437;53.250;10.406;2023-09-12T20:00:40;10.93;;;9.23;;
2858;SDS011;1437;53.250;10.406;2023-09-12T20:03:22;11.27;;;9.07;;
2858;SDS011;1437;53.250;10.406;2023-09-12T20:05:58;12.13;;;9.37;;
2858;SDS011;1437;53.250;10.406;2023-09-12T20:08:38;11.47;;;9.50;;
2858;SDS011;1437;53.250;10.406;2023-09-12T20:11:29;14.43;;;8.17;;
2858;SDS011;1437;53.250;10.406;2023-09-12T20:14:09;8.87;;;7.60;;
2858;SDS011;1437;53.250;10.406;2023-09-12T20:16:40;9.30;;;8.03;;
2858;SDS011;1437;53.250;10.406;2023-09-12T20:19:13;11.20;;;8.40;;
2858;SDS011;1437;53.250;10.406;2023-09-12T20:21:44;10.53;;;8.63;;
2858;SDS011;1437;53.250;10.406;2023-09-12T20:24:15;10.20;;;8.60;;
2858;SDS011;1437;53.250;10.406;2023-09-12T20:27:26;12.40;;;7.90;;
2858;SDS011;1437;53.250;10.406;2023-09-12T20:29:59;9.80;;;7.63;;
2858;SDS011;1437;53.250;10.406;2023-09-12T20:34:18;9.70;;;8.20;;
2858;SDS011;1437;53.250;10.406;2023-09-12T20:36:03;11.07;;;7.83;;
2858;SDS011;1437;53.250;10.406;2023-09-12T20:38:47;10.13;;;7.20;;
2858;SDS011;1437;53.250;10.406;2023-09-12T20:54:17;14.67;;;8.27;;
2858;SDS011;1437;53.250;10.406;2023-09-12T20:56:47;10.70;;;7.60;;
2858;SDS011;1437;53.250;10.406;2023-09-12T20:59:26;12.80;;;10.13;;
2858;SDS011;1437;53.250;10.406;2023-09-12T21:01:59;10.30;;;8.47;;
2858;SDS011;1437;53.250;10.406;2023-09-12T21:07:26;10.13;;;8.97;;
2858;SDS011;1437;53.250;10.406;2023-09-12T21:10:10;11.83;;;9.27;;
2858;SDS011;1437;53.250;10.406;2023-09-12T21:12:39;10.50;;;8.47;;
2858;SDS011;1437;53.250;10.406;2023-09-12T21:15:23;12.57;;;8.47;;
2858;SDS011;1437;53.250;10.406;2023-09-12T21:18:19;9.80;;;8.23;;
2858;SDS011;1437;53.250;10.406;2023-09-12T21:20:55;12.80;;;8.70;;
2858;SDS011;1437;53.250;10.406;2023-09-12T21:23:36;12.60;;;9.07;;
2858;SDS011;1437;53.250;10.406;2023-09-12T21:29:18;35.00;;;20.57;;
2858;SDS011;1437;53.250;10.406;2023-09-12T21:31:57;18.93;;;12.70;;
2858;SDS011;1437;53.250;10.406;2023-09-12T21:39:09;10.10;;;7.87;;
2858;SDS011;1437;53.250;10.406;2023-09-12T21:45:36;9.17;;;7.97;;
2858;SDS011;1437;53.250;10.406;2023-09-12T21:48:04;9.27;;;7.50;;
2858;SDS011;1437;53.250;10.406;2023-09-12T21:50:36;8.67;;;6.60;;
2858;SDS011;1437;53.250;10.406;2023-09-12T21:53:04;11.63;;;7.00;;
2858;SDS011;1437;53.250;10.406;2023-09-12T21:55:32;9.10;;;6.60;;
2858;SDS011;1437;53.250;10.406;2023-09-12T21:58:01;12.70;;;8.03;;
2858;SDS011;1437;53.250;10.406;2023-09-12T22:00:30;8.20;;;6.20;;
2858;SDS011;1437;53.250;10.406;2023-09-12T22:03:06;8.20;;;6.80;;
2858;SDS011;1437;53.250;10.406;2023-09-12T22:05:34;8.13;;;6.37;;
2858;SDS011;1437;53.250;10.406;2023-09-12T22:08:03;10.60;;;7.20;;
2858;SDS011;1437;53.250;10.406;2023-09-12T22:10:44;9.87;;;6.83;;
2858;SDS011;1437;53.250;10.406;2023-09-12T22:13:12;7.57;;;6.43;;
2858;SDS011;1437;53.250;10.406;2023-09-12T22:15:40;7.93;;;6.53;;
2858;SDS011;1437;53.250;10.406;2023-09-12T22:18:11;9.27;;;6.80;;
2858;SDS011;1437;53.250;10.406;2023-09-12T22:20:41;10.60;;;6.50;;
2858;SDS011;1437;53.250;10.406;2023-09-12T22:23:09;10.33;;;6.77;;
2858;SDS011;1437;53.250;10.406;2023-09-12T22:25:38;8.90;;;6.83;;
2858;SDS011;1437;53.250;10.406;2023-09-12T22:28:06;8.83;;;6.97;;
2858;SDS011;1437;53.250;10.406;2023-09-12T22:30:45;8.13;;;6.40;;
2858;SDS011;1437;53.250;10.406;2023-09-12T22:33:14;10.10;;;6.20;;
2858;SDS011;1437;53.250;10.406;2023-09-12T22:35:51;9.80;;;5.47;;
2858;SDS011;1437;53.250;10.406;2023-09-12T22:38:21;15.50;;;6.73;;
2858;SDS011;1437;53.250;10.406;2023-09-12T22:50:44;8.77;;;6.40;;
2858;SDS011;1437;53.250;10.406;2023-09-12T22:53:38;9.50;;;7.03;;
2858;SDS011;1437;53.250;10.406;2023-09-12T22:56:17;8.90;;;7.20;;
2858;SDS011;1437;53.250;10.406;2023-09-12T22:58:53;7.83;;;6.60;;
2858;SDS011;1437;53.250;10.406;2023-09-12T23:01:21;9.30;;;6.80;;
2858;SDS011;1437;53.250;10.406;2023-09-12T23:04:01;7.60;;;6.03;;
2858;SDS011;1437;53.250;10.406;2023-09-12T23:06:43;8.17;;;5.40;;
2858;SDS011;1437;53.250;10.406;2023-09-12T23:09:25;7.30;;;6.10;;
2858;SDS011;1437;53.250;10.406;2023-09-12T23:12:07;8.27;;;5.77;;
2858;SDS011;1437;53.250;10.406;2023-09-12T23:14:49;7.10;;;5.47;;
2858;SDS011;1437;53.250;10.406;2023-09-12T23:17:27;7.20;;;5.77;;
2858;SDS011;1437;53.250;10.406;2023-09-12T23:20:08;6.80;;;4.83;;
2858;SDS011;1437;53.250;10.406;2023-09-12T23:22:39;7.50;;;6.00;;
2858;SDS011;1437;53.250;10.406;2023-09-12T23:25:21;6.60;;;5.00;;
2858;SDS011;1437;53.250;10.406;2023-09-12T23:28:01;6.90;;;6.07;;
2858;SDS011;1437;53.250;10.406;2023-09-12T23:30:37;7.90;;;6.00;;
2858;SDS011;1437;53.250;10.406;2023-09-12T23:33:11;7.37;;;5.83;;
2858;SDS011;1437;53.250;10.406;2023-09-12T23:35:50;9.30;;;5.47;;
2858;SDS011;1437;53.250;10.406;2023-09-12T23:38:29;7.73;;;5.30;;
2858;SDS011;1437;53.250;10.406;2023-09-12T23:48:51;6.53;;;5.33;;
2858;SDS011;1437;53.250;10.406;2023-09-12T23:51:28;7.03;;;5.77;;
2858;SDS011;1437;53.250;10.406;2023-09-12T23:53:59;5.90;;;4.50;;
2858;SDS011;1437;53.250;10.406;2023-09-12T23:56:29;5.53;;;4.20;;
2858;SDS011;1437;53.250;10.406;2023-09-12T23:59:01;9.73;;;4.00;;
